Florence, Montana
Current Conditions -  °F | °C
As of 5:53 AM on Monday 22 Dec 2014 (Local Time) from KMSO Reporting Station
Overcast Overcast  
Wind Chill: 34°   Ceiling: 4700
Heat Index: 34°   Visibility: 10mi
Dew Point: 30°   Wind: 3mph
Humidity: 85%   Direction: 260°W
Pressure: 29.95"   Gusts: NA
Location:  46.63°N, 114.09°W
Report Text: KMSO 221253Z AUTO 26003KT 10SM BKN047 BKN075 OVC090 01/M01 A2995 RMK AO2 SLP162 T00111011 $
Loading
Personal Weather Stations






























Interactive Weather Map New forecast layout! Learn more

10-Day Weather Forecast

Advertisements
Track Severe Weather on mobile